Time;durP1;ratioP1;P1;durP2;ratioP2;P2;SDS_P1;SDS_P2;PMS_P1;PMS_P2;Temp;Humidity;BMP_temperature;BMP_pressure;BME280_temperature;BME280_humidity;BME280_pressure;Samples;Min_cycle;Max_cycle;Signal;HPM_P1;HPM_P2
2023/04/27 00:01:10;;;;;;;15.30;7.67;;;;;;;;;;5036287;28;20025;-76
2023/04/27 00:03:36;;;;;;;19.23;6.80;;;;;;;;;;5035753;28;20056;-76
2023/04/27 00:06:02;;;;;;;15.17;7.20;;;;;;;;;;5036998;28;20219;-75
2023/04/27 00:08:28;;;;;;;19.37;7.07;;;;;;;;;;5037862;28;20040;-75
2023/04/27 00:10:53;;;;;;;13.43;7.57;;;;;;;;;;5038813;28;20033;-76
2023/04/27 00:13:19;;;;;;;17.33;7.37;;;;;;;;;;5043190;28;20041;-73
2023/04/27 00:15:44;;;;;;;12.63;6.73;;;;;;;;;;5053792;28;20076;-75
2023/04/27 00:18:10;;;;;;;19.40;7.73;;;;;;;;;;5046081;28;20064;-76
2023/04/27 00:20:35;;;;;;;19.73;8.47;;;;;;;;;;5038375;28;20083;-75
2023/04/27 00:23:01;;;;;;;15.73;7.47;;;;;;;;;;5033916;28;20053;-75
2023/04/27 00:25:27;;;;;;;18.47;8.10;;;;;;;;;;5030973;28;20026;-75
2023/04/27 00:27:52;;;;;;;18.37;7.83;;;;;;;;;;5030260;28;20033;-75
2023/04/27 00:30:18;;;;;;;14.70;7.90;;;;;;;;;;5029823;28;20135;-76
2023/04/27 00:32:43;;;;;;;17.77;7.43;;;;;;;;;;5029596;28;20098;-76
2023/04/27 00:35:09;;;;;;;23.30;8.87;;;;;;;;;;5031209;28;20358;-76
2023/04/27 00:37:35;;;;;;;18.67;8.13;;;;;;;;;;5029605;28;20615;-76
2023/04/27 00:40:03;;;;;;;21.00;9.07;;;;;;;;;;5031291;28;20025;-76
2023/04/27 00:42:29;;;;;;;16.30;7.33;;;;;;;;;;5029881;28;20116;-76
2023/04/27 00:44:57;;;;;;;19.90;8.33;;;;;;;;;;5029457;28;20548;-76
2023/04/27 00:47:23;;;;;;;17.27;7.73;;;;;;;;;;5031211;28;20394;-76
2023/04/27 00:49:50;;;;;;;21.27;8.40;;;;;;;;;;5029379;28;20061;-76
2023/04/27 00:52:16;;;;;;;21.70;8.40;;;;;;;;;;5013120;28;20057;-75
2023/04/27 00:54:41;;;;;;;17.00;8.17;;;;;;;;;;5029738;28;20057;-75
2023/04/27 00:57:07;;;;;;;21.00;7.87;;;;;;;;;;5032492;28;20552;-75
2023/04/27 00:59:33;;;;;;;13.87;8.20;;;;;;;;;;5031873;28;20065;-76
2023/04/27 01:02:00;;;;;;;17.77;8.20;;;;;;;;;;5029665;28;20519;-76
2023/04/27 01:04:27;;;;;;;16.83;7.97;;;;;;;;;;5029764;28;20041;-76
2023/04/27 01:06:53;;;;;;;19.97;7.97;;;;;;;;;;5030279;28;20037;-76
2023/04/27 01:09:19;;;;;;;19.90;7.90;;;;;;;;;;5030876;28;20032;-76
2023/04/27 01:11:45;;;;;;;14.13;7.40;;;;;;;;;;5030598;28;20025;-76
2023/04/27 01:14:11;;;;;;;17.40;7.57;;;;;;;;;;5029175;28;20025;-76
2023/04/27 01:16:37;;;;;;;17.80;8.10;;;;;;;;;;5028827;28;20029;-74
2023/04/27 01:19:03;;;;;;;16.87;7.67;;;;;;;;;;5029413;28;20108;-75
2023/04/27 01:21:29;;;;;;;18.67;7.57;;;;;;;;;;5029147;28;20053;-75
2023/04/27 01:23:55;;;;;;;19.70;7.77;;;;;;;;;;5029337;28;20560;-76
2023/04/27 01:26:21;;;;;;;12.93;6.67;;;;;;;;;;5029344;28;20025;-75
2023/04/27 01:28:47;;;;;;;19.83;7.80;;;;;;;;;;5029062;28;20121;-76
2023/04/27 01:31:13;;;;;;;14.93;6.97;;;;;;;;;;5032326;28;20047;-76
2023/04/27 01:33:39;;;;;;;19.60;7.03;;;;;;;;;;5032233;28;20029;-75
2023/04/27 01:36:05;;;;;;;17.67;7.77;;;;;;;;;;5032370;28;20029;-76
2023/04/27 01:38:32;;;;;;;14.27;6.93;;;;;;;;;;5032241;28;20036;-76
2023/04/27 01:41:01;;;;;;;13.50;7.17;;;;;;;;;;5049810;28;20021;-76
2023/04/27 01:43:28;;;;;;;13.00;6.33;;;;;;;;;;5032426;28;20033;-75
2023/04/27 01:45:53;;;;;;;21.50;7.90;;;;;;;;;;5031949;28;20036;-75
2023/04/27 01:48:19;;;;;;;15.53;6.47;;;;;;;;;;5031907;28;20393;-76
2023/04/27 01:50:44;;;;;;;19.23;8.23;;;;;;;;;;5031839;28;20029;-76
2023/04/27 01:53:10;;;;;;;12.63;6.53;;;;;;;;;;5031579;28;20557;-76
2023/04/27 01:55:36;;;;;;;16.03;6.70;;;;;;;;;;5049405;28;20406;-76
2023/04/27 01:58:01;;;;;;;15.47;6.60;;;;;;;;;;5033699;28;20035;-76
2023/04/27 02:00:27;;;;;;;10.30;6.47;;;;;;;;;;5033508;28;20036;-76
2023/04/27 02:02:53;;;;;;;14.53;6.60;;;;;;;;;;5051235;28;20036;-76
2023/04/27 02:05:19;;;;;;;20.40;7.60;;;;;;;;;;5033759;28;20365;-76
2023/04/27 02:07:44;;;;;;;17.57;6.83;;;;;;;;;;5052804;28;20028;-75
2023/04/27 02:10:10;;;;;;;11.17;6.13;;;;;;;;;;5054084;28;20416;-76
2023/04/27 02:12:36;;;;;;;18.03;7.23;;;;;;;;;;5042796;28;20047;-75
2023/04/27 02:15:02;;;;;;;14.90;6.83;;;;;;;;;;5063997;28;20036;-75
2023/04/27 02:17:28;;;;;;;14.67;7.03;;;;;;;;;;5061381;28;20036;-76
2023/04/27 02:19:54;;;;;;;14.30;6.57;;;;;;;;;;5032974;28;20470;-76
2023/04/27 02:22:19;;;;;;;17.80;7.10;;;;;;;;;;5049825;28;20388;-76
2023/04/27 02:24:45;;;;;;;16.87;7.13;;;;;;;;;;5049101;28;20037;-76
2023/04/27 02:27:11;;;;;;;13.47;6.90;;;;;;;;;;5049841;28;20029;-76
2023/04/27 02:29:37;;;;;;;18.63;7.07;;;;;;;;;;5031214;28;20025;-76
2023/04/27 02:32:05;;;;;;;13.27;6.77;;;;;;;;;;5031167;28;20060;-76
2023/04/27 02:34:30;;;;;;;13.70;6.50;;;;;;;;;;5031338;28;20025;-76
2023/04/27 02:36:57;;;;;;;14.90;6.93;;;;;;;;;;5031496;28;20025;-76
2023/04/27 02:39:23;;;;;;;14.57;6.90;;;;;;;;;;5031500;28;20024;-76
2023/04/27 02:41:48;;;;;;;18.37;8.00;;;;;;;;;;5031236;28;20561;-76
2023/04/27 02:44:14;;;;;;;16.67;7.47;;;;;;;;;;5049938;28;20059;-76
2023/04/27 02:46:39;;;;;;;14.50;7.10;;;;;;;;;;5049395;28;20469;-76
2023/04/27 02:49:05;;;;;;;14.90;7.10;;;;;;;;;;5031587;28;20049;-76
2023/04/27 02:51:30;;;;;;;17.47;6.87;;;;;;;;;;5032361;28;20029;-76
2023/04/27 02:53:56;;;;;;;12.80;6.63;;;;;;;;;;5034818;28;20032;-76
2023/04/27 02:56:22;;;;;;;14.77;6.70;;;;;;;;;;5052622;28;20079;-75
2023/04/27 02:58:48;;;;;;;19.20;6.40;;;;;;;;;;5034743;28;20028;-75
2023/04/27 03:01:16;;;;;;;12.67;6.23;;;;;;;;;;5053033;28;20085;-75
2023/04/27 03:03:45;;;;;;;14.60;7.50;;;;;;;;;;5034670;28;20033;-75
2023/04/27 03:06:10;;;;;;;17.33;7.27;;;;;;;;;;5018083;28;20033;-77
2023/04/27 03:08:36;;;;;;;18.77;6.43;;;;;;;;;;5034999;28;20064;-76
2023/04/27 03:11:01;;;;;;;12.20;6.20;;;;;;;;;;5052419;28;20581;-76
2023/04/27 03:13:27;;;;;;;12.70;6.83;;;;;;;;;;5034980;28;20078;-76
2023/04/27 03:15:53;;;;;;;22.13;7.03;;;;;;;;;;5034487;28;20029;-76
2023/04/27 03:18:18;;;;;;;15.33;7.80;;;;;;;;;;5034920;28;20040;-76
2023/04/27 03:20:44;;;;;;;19.90;7.00;;;;;;;;;;5034445;28;20048;-76
2023/04/27 03:23:10;;;;;;;16.50;5.97;;;;;;;;;;5052797;28;20543;-76
2023/04/27 03:25:36;;;;;;;11.87;6.37;;;;;;;;;;5034700;28;20043;-76
2023/04/27 03:28:02;;;;;;;11.27;6.43;;;;;;;;;;5052808;28;20025;-76
2023/04/27 03:30:27;;;;;;;15.07;6.50;;;;;;;;;;5034738;28;20035;-76
2023/04/27 03:32:53;;;;;;;10.33;6.13;;;;;;;;;;5052275;28;20045;-76
2023/04/27 03:35:18;;;;;;;19.23;6.20;;;;;;;;;;5052322;28;20020;-76
2023/04/27 03:37:44;;;;;;;14.00;6.27;;;;;;;;;;5052405;28;20798;-76
2023/04/27 03:40:11;;;;;;;14.53;5.87;;;;;;;;;;5034506;28;20025;-76
2023/04/27 03:42:37;;;;;;;18.63;7.00;;;;;;;;;;5034371;28;20024;-76
2023/04/27 03:45:03;;;;;;;15.90;6.07;;;;;;;;;;5051966;28;20020;-76
2023/04/27 03:47:29;;;;;;;11.30;6.00;;;;;;;;;;5052090;28;20048;-76
2023/04/27 03:49:55;;;;;;;14.10;6.60;;;;;;;;;;5051790;28;20053;-76
2023/04/27 03:52:21;;;;;;;12.13;5.80;;;;;;;;;;5034120;28;20025;-76
2023/04/27 03:54:46;;;;;;;18.47;6.70;;;;;;;;;;5033799;28;20063;-76
2023/04/27 03:57:11;;;;;;;18.87;6.83;;;;;;;;;;5034096;28;20339;-76
2023/04/27 03:59:37;;;;;;;15.13;7.23;;;;;;;;;;5052312;28;20044;-76
2023/04/27 04:02:04;;;;;;;13.53;5.80;;;;;;;;;;5051215;28;20072;-77
2023/04/27 04:04:30;;;;;;;13.20;6.50;;;;;;;;;;5050799;28;20381;-76
2023/04/27 04:06:55;;;;;;;19.93;8.23;;;;;;;;;;5051927;28;20031;-76
2023/04/27 04:09:21;;;;;;;15.93;7.70;;;;;;;;;;5052353;28;20059;-76
2023/04/27 04:11:46;;;;;;;13.63;6.50;;;;;;;;;;5033941;28;20028;-76
2023/04/27 04:14:12;;;;;;;16.57;6.73;;;;;;;;;;5033802;28;20342;-76
2023/04/27 04:16:37;;;;;;;16.43;7.30;;;;;;;;;;5051861;28;20023;-76
2023/04/27 04:19:03;;;;;;;17.90;6.30;;;;;;;;;;5052093;28;20029;-76
2023/04/27 04:21:28;;;;;;;17.13;6.80;;;;;;;;;;5054105;28;20077;-76
2023/04/27 04:23:55;;;;;;;17.37;7.40;;;;;;;;;;5037039;28;20032;-76
2023/04/27 04:26:22;;;;;;;20.17;8.47;;;;;;;;;;5041144;28;20142;-75
2023/04/27 04:28:47;;;;;;;16.43;8.87;;;;;;;;;;5049255;28;20052;-75
2023/04/27 04:31:16;;;;;;;25.63;9.50;;;;;;;;;;5046548;28;20426;-75
2023/04/27 04:33:41;;;;;;;15.97;8.73;;;;;;;;;;5054131;28;20069;-76
2023/04/27 04:36:07;;;;;;;19.70;8.87;;;;;;;;;;5051479;28;20049;-76
2023/04/27 04:38:33;;;;;;;16.50;7.90;;;;;;;;;;5035518;28;20061;-76
2023/04/27 04:40:58;;;;;;;20.10;9.97;;;;;;;;;;5035018;28;20033;-77
2023/04/27 04:43:24;;;;;;;24.77;9.07;;;;;;;;;;5053440;28;20369;-76
2023/04/27 04:45:50;;;;;;;18.47;9.43;;;;;;;;;;5034245;28;20318;-74
2023/04/27 04:48:15;;;;;;;19.53;10.07;;;;;;;;;;5033874;28;20025;-75
2023/04/27 04:50:41;;;;;;;13.13;7.67;;;;;;;;;;5034348;28;20109;-76
2023/04/27 04:53:07;;;;;;;20.27;8.43;;;;;;;;;;5034458;28;20563;-75
2023/04/27 04:55:33;;;;;;;28.83;9.27;;;;;;;;;;5037641;28;20025;-76
2023/04/27 04:57:58;;;;;;;19.20;8.30;;;;;;;;;;5037840;28;20025;-75
2023/04/27 05:00:24;;;;;;;18.47;10.50;;;;;;;;;;5034595;28;20250;-75
2023/04/27 05:02:50;;;;;;;18.20;9.63;;;;;;;;;;5051054;28;20025;-76
2023/04/27 05:05:16;;;;;;;21.47;9.60;;;;;;;;;;5032910;28;20060;-76
2023/04/27 05:07:41;;;;;;;22.37;10.93;;;;;;;;;;5024939;28;20091;-76
2023/04/27 05:10:07;;;;;;;21.77;9.67;;;;;;;;;;5027279;28;20059;-76
2023/04/27 05:12:33;;;;;;;14.17;8.20;;;;;;;;;;5050428;28;20033;-76
2023/04/27 05:14:58;;;;;;;18.67;9.20;;;;;;;;;;5031006;28;20021;-76
2023/04/27 05:17:24;;;;;;;22.80;9.73;;;;;;;;;;5050358;28;20557;-76
2023/04/27 05:19:49;;;;;;;19.33;7.93;;;;;;;;;;5032051;28;20033;-75
2023/04/27 05:22:15;;;;;;;21.70;9.87;;;;;;;;;;5048694;28;20112;-76
2023/04/27 05:24:40;;;;;;;22.80;8.93;;;;;;;;;;5031946;28;20029;-74
2023/04/27 05:27:07;;;;;;;16.47;7.57;;;;;;;;;;5031598;28;20060;-74
2023/04/27 05:29:33;;;;;;;14.10;8.23;;;;;;;;;;5031691;28;20033;-74
2023/04/27 05:31:58;;;;;;;16.30;8.90;;;;;;;;;;5028449;28;20069;-75
2023/04/27 05:34:24;;;;;;;13.53;7.30;;;;;;;;;;5028235;28;20128;-76
2023/04/27 05:36:50;;;;;;;21.80;14.33;;;;;;;;;;5027902;28;20048;-74
2023/04/27 05:39:15;;;;;;;21.63;9.40;;;;;;;;;;5027967;28;20123;-73
2023/04/27 05:41:41;;;;;;;13.30;7.87;;;;;;;;;;5029539;28;20435;-74
2023/04/27 05:44:07;;;;;;;23.00;8.03;;;;;;;;;;5029348;28;20446;-74
2023/04/27 05:46:32;;;;;;;18.07;7.67;;;;;;;;;;5026732;28;20034;-74
2023/04/27 05:48:58;;;;;;;16.13;7.93;;;;;;;;;;5025401;28;20037;-74
2023/04/27 05:51:24;;;;;;;12.47;7.90;;;;;;;;;;5021890;28;20065;-75
2023/04/27 05:53:49;;;;;;;15.10;7.13;;;;;;;;;;5024051;28;20041;-76
2023/04/27 05:56:15;;;;;;;14.70;7.27;;;;;;;;;;5026408;28;20197;-75
2023/04/27 05:58:41;;;;;;;16.97;8.63;;;;;;;;;;5027208;28;20037;-74
2023/04/27 06:01:07;;;;;;;16.03;7.53;;;;;;;;;;5018365;28;20033;-72
2023/04/27 06:03:32;;;;;;;15.73;7.27;;;;;;;;;;5022916;28;20043;-74
2023/04/27 06:05:59;;;;;;;32.53;10.63;;;;;;;;;;5025410;28;20033;-75
2023/04/27 06:08:26;;;;;;;16.97;8.93;;;;;;;;;;5025894;28;20512;-76
2023/04/27 06:10:52;;;;;;;14.00;7.93;;;;;;;;;;5019266;28;20029;-75
2023/04/27 06:13:17;;;;;;;18.80;7.53;;;;;;;;;;5028424;28;20041;-76
2023/04/27 06:15:43;;;;;;;16.77;9.17;;;;;;;;;;5023616;28;20041;-74
2023/04/27 06:18:09;;;;;;;17.43;8.40;;;;;;;;;;5021806;28;20191;-76
2023/04/27 06:20:35;;;;;;;13.40;7.33;;;;;;;;;;5026537;28;20795;-75
2023/04/27 06:23:01;;;;;;;16.70;8.17;;;;;;;;;;5024294;28;20548;-78
2023/04/27 06:25:27;;;;;;;14.60;7.67;;;;;;;;;;5026508;28;20041;-76
2023/04/27 06:27:54;;;;;;;19.27;8.77;;;;;;;;;;5025348;28;20048;-75
2023/04/27 06:30:20;;;;;;;17.87;7.70;;;;;;;;;;5020320;28;20061;-74
2023/04/27 06:32:45;;;;;;;23.17;10.20;;;;;;;;;;5018177;28;20545;-74
2023/04/27 06:35:11;;;;;;;19.37;8.40;;;;;;;;;;5027657;28;20485;-74
2023/04/27 06:37:36;;;;;;;17.33;11.13;;;;;;;;;;5023275;28;20021;-74
2023/04/27 06:40:02;;;;;;;18.73;8.40;;;;;;;;;;5030073;28;20075;-75
2023/04/27 06:42:28;;;;;;;12.83;7.80;;;;;;;;;;5022057;28;20120;-75
2023/04/27 06:44:57;;;;;;;16.80;6.60;;;;;;;;;;5017945;28;20033;-74
2023/04/27 06:47:23;;;;;;;12.73;5.97;;;;;;;;;;5022452;28;20622;-75
2023/04/27 06:49:49;;;;;;;14.27;7.43;;;;;;;;;;5020728;28;20022;-77
2023/04/27 06:52:15;;;;;;;13.35;7.63;;;;;;;;;;5021070;28;20029;-75
2023/04/27 06:54:41;;;;;;;14.00;7.05;;;;;;;;;;5019640;28;20883;-75
2023/04/27 06:57:06;;;;;;;14.82;7.03;;;;;;;;;;5016522;28;20655;-76
2023/04/27 06:59:31;;;;;;;13.65;6.53;;;;;;;;;;5021863;28;20029;-73
2023/04/27 07:01:57;;;;;;;17.05;6.85;;;;;;;;;;5015682;28;20021;-77
2023/04/27 07:04:23;;;;;;;16.70;5.55;;;;;;;;;;5012685;28;20047;-76
2023/04/27 07:06:48;;;;;;;10.13;6.13;;;;;;;;;;5017557;28;20449;-75
2023/04/27 07:09:14;;;;;;;12.73;5.28;;;;;;;;;;5023622;28;20381;-74
2023/04/27 07:11:39;;;;;;;14.23;5.40;;;;;;;;;;5024213;28;20474;-77
2023/04/27 07:14:05;;;;;;;8.65;4.65;;;;;;;;;;5022974;28;20152;-77
2023/04/27 07:16:32;;;;;;;10.45;5.25;;;;;;;;;;5015942;28;20040;-77
2023/04/27 07:18:58;;;;;;;10.95;4.75;;;;;;;;;;5016866;28;20025;-76
2023/04/27 07:21:25;;;;;;;10.10;4.53;;;;;;;;;;5014265;28;20761;-76
2023/04/27 07:23:52;;;;;;;9.90;4.65;;;;;;;;;;5036372;28;20026;-76
2023/04/27 07:26:17;;;;;;;10.18;5.15;;;;;;;;;;5017641;28;20037;-76
2023/04/27 07:28:43;;;;;;;8.68;4.72;;;;;;;;;;5017264;28;20037;-76
2023/04/27 07:31:21;;;;;;;9.13;4.63;;;;;;;;;;5015798;28;20029;-75
2023/04/27 07:33:47;;;;;;;10.45;4.70;;;;;;;;;;5036023;28;20040;-76
2023/04/27 07:36:12;;;;;;;8.38;4.93;;;;;;;;;;5037535;28;20520;-77
2023/04/27 07:38:38;;;;;;;13.70;4.55;;;;;;;;;;5038231;28;20113;-76
2023/04/27 07:41:04;;;;;;;11.50;4.55;;;;;;;;;;5027332;28;20071;-76
2023/04/27 07:43:32;;;;;;;10.82;4.22;;;;;;;;;;5043216;28;20613;-78
2023/04/27 07:46:17;;;;;;;9.25;3.63;;;;;;;;;;5044255;28;20031;-74
2023/04/27 07:48:43;;;;;;;7.20;4.45;;;;;;;;;;5034704;28;20033;-77
2023/04/27 07:51:09;;;;;;;8.30;3.28;;;;;;;;;;5042351;28;20071;-76
2023/04/27 07:53:35;;;;;;;33.33;6.72;;;;;;;;;;5041907;28;20033;-77
2023/04/27 07:56:01;;;;;;;10.43;3.40;;;;;;;;;;5025317;28;20028;-76
2023/04/27 07:58:27;;;;;;;8.65;3.90;;;;;;;;;;5021690;28;21297;-76
2023/04/27 08:00:55;;;;;;;10.90;4.55;;;;;;;;;;5025366;28;20029;-76
2023/04/27 08:03:21;;;;;;;6.20;3.15;;;;;;;;;;5025917;28;20190;-76
2023/04/27 08:05:47;;;;;;;8.02;3.55;;;;;;;;;;5024478;28;20116;-76
2023/04/27 08:08:12;;;;;;;7.97;4.15;;;;;;;;;;5042729;28;20327;-77
2023/04/27 08:10:41;;;;;;;7.28;3.83;;;;;;;;;;5043900;28;20471;-75
2023/04/27 08:13:08;;;;;;;11.98;3.35;;;;;;;;;;5045844;28;20037;-76
2023/04/27 08:15:35;;;;;;;12.18;4.40;;;;;;;;;;5043020;28;20036;-78
2023/04/27 08:18:02;;;;;;;12.88;4.30;;;;;;;;;;5045574;28;20472;-76
2023/04/27 08:20:27;;;;;;;11.23;4.03;;;;;;;;;;5044403;28;20032;-76
2023/04/27 08:22:53;;;;;;;7.28;3.90;;;;;;;;;;5029959;28;20032;-77
2023/04/27 08:25:18;;;;;;;6.57;3.90;;;;;;;;;;5038417;28;20037;-76
2023/04/27 08:27:44;;;;;;;7.78;3.63;;;;;;;;;;5035279;28;20025;-78
2023/04/27 08:30:10;;;;;;;9.50;4.25;;;;;;;;;;5046800;28;20614;-76
2023/04/27 08:32:36;;;;;;;7.38;4.68;;;;;;;;;;5030886;28;20057;-75
2023/04/27 08:35:03;;;;;;;10.75;5.03;;;;;;;;;;5035484;28;20115;-76
2023/04/27 08:37:29;;;;;;;5.53;3.90;;;;;;;;;;5039507;28;20017;-77
2023/04/27 08:39:54;;;;;;;9.98;4.10;;;;;;;;;;5037293;28;20850;-76
2023/04/27 08:42:20;;;;;;;13.35;4.30;;;;;;;;;;5033328;28;20135;-75
2023/04/27 08:44:48;;;;;;;10.00;3.83;;;;;;;;;;5046644;28;20037;-76
2023/04/27 08:47:14;;;;;;;6.68;3.85;;;;;;;;;;5027515;28;20090;-76
2023/04/27 08:49:42;;;;;;;6.20;4.38;;;;;;;;;;5029005;28;20056;-76
2023/04/27 08:52:16;;;;;;;7.68;3.92;;;;;;;;;;5028429;28;20025;-77
2023/04/27 08:54:42;;;;;;;6.72;3.75;;;;;;;;;;5031442;28;20021;-76
2023/04/27 08:57:12;;;;;;;10.40;3.92;;;;;;;;;;5046312;28;20136;-75
2023/04/27 08:59:39;;;;;;;8.73;3.55;;;;;;;;;;5027848;28;20032;-75
2023/04/27 09:02:04;;;;;;;7.85;3.30;;;;;;;;;;5039845;28;20028;-77
2023/04/27 09:04:40;;;;;;;8.68;3.70;;;;;;;;;;5012809;28;20029;-76
2023/04/27 09:07:17;;;;;;;6.75;4.28;;;;;;;;;;5031225;28;20340;-76
2023/04/27 09:09:44;;;;;;;9.70;4.20;;;;;;;;;;5035123;28;20025;-74
2023/04/27 09:12:15;;;;;;;12.15;5.97;;;;;;;;;;5008620;28;20076;-74
2023/04/27 09:14:41;;;;;;;9.60;4.47;;;;;;;;;;5032872;28;20118;-75
2023/04/27 09:17:07;;;;;;;5.30;3.17;;;;;;;;;;5015977;28;20217;-75
2023/04/27 09:19:33;;;;;;;5.72;3.25;;;;;;;;;;5018371;28;20131;-74
2023/04/27 09:22:12;;;;;;;8.57;4.32;;;;;;;;;;5016892;28;20029;-75
2023/04/27 09:24:38;;;;;;;7.38;3.40;;;;;;;;;;5024711;28;20404;-74
2023/04/27 09:27:06;;;;;;;11.27;3.88;;;;;;;;;;5026728;28;20105;-78
2023/04/27 09:29:36;;;;;;;6.47;3.58;;;;;;;;;;5028174;28;20574;-76
2023/04/27 09:32:02;;;;;;;11.77;3.45;;;;;;;;;;5033226;28;20433;-75
2023/04/27 09:34:38;;;;;;;6.88;3.47;;;;;;;;;;5022123;28;20033;-75
2023/04/27 09:37:05;;;;;;;9.32;3.47;;;;;;;;;;5032622;28;20175;-74
2023/04/27 09:39:31;;;;;;;6.30;3.40;;;;;;;;;;5017555;28;20082;-75
2023/04/27 09:41:59;;;;;;;5.20;3.30;;;;;;;;;;5022598;28;20032;-76
2023/04/27 09:44:27;;;;;;;5.57;3.55;;;;;;;;;;5034072;28;20108;-75
2023/04/27 09:47:02;;;;;;;6.00;2.95;;;;;;;;;;5031964;28;20822;-73
2023/04/27 09:49:29;;;;;;;10.52;3.60;;;;;;;;;;5021928;28;20016;-75
2023/04/27 09:51:57;;;;;;;8.55;3.50;;;;;;;;;;5033496;28;20035;-75
2023/04/27 09:54:31;;;;;;;7.75;3.75;;;;;;;;;;5016318;28;20534;-76
2023/04/27 09:57:22;;;;;;;6.45;4.47;;;;;;;;;;5038625;28;20036;-76
2023/04/27 09:59:57;;;;;;;8.13;3.80;;;;;;;;;;5032711;28;20107;-75
2023/04/27 10:02:25;;;;;;;15.93;3.88;;;;;;;;;;5011803;28;20477;-75
2023/04/27 10:05:09;;;;;;;11.93;3.63;;;;;;;;;;5039156;28;20047;-76
2023/04/27 10:07:37;;;;;;;11.15;4.25;;;;;;;;;;5036127;28;20056;-76
2023/04/27 10:10:03;;;;;;;8.95;4.57;;;;;;;;;;5041703;28;20028;-75
2023/04/27 10:12:35;;;;;;;11.55;5.47;;;;;;;;;;5019694;28;20033;-73
2023/04/27 10:15:14;;;;;;;13.75;4.20;;;;;;;;;;5024529;28;20128;-76
2023/04/27 10:17:48;;;;;;;9.15;4.35;;;;;;;;;;5027410;28;20381;-75
2023/04/27 10:20:13;;;;;;;8.80;4.20;;;;;;;;;;5023083;28;20024;-74
2023/04/27 10:22:48;;;;;;;7.25;3.30;;;;;;;;;;5021244;28;20373;-76
2023/04/27 10:25:28;;;;;;;8.50;3.95;;;;;;;;;;5019013;28;20043;-77
2023/04/27 10:28:01;;;;;;;7.28;3.70;;;;;;;;;;5035876;28;20041;-74
2023/04/27 10:30:32;;;;;;;8.23;4.43;;;;;;;;;;5023567;28;20044;-75
2023/04/27 10:33:07;;;;;;;4.93;3.70;;;;;;;;;;4990870;28;20567;-75
2023/04/27 10:35:35;;;;;;;12.13;4.63;;;;;;;;;;5019479;28;20087;-75
2023/04/27 10:38:18;;;;;;;6.63;4.47;;;;;;;;;;5016316;28;20026;-76
2023/04/27 10:40:45;;;;;;;9.10;3.65;;;;;;;;;;5018428;28;20025;-74
2023/04/27 10:43:16;;;;;;;5.60;3.78;;;;;;;;;;5016356;28;20350;-76
2023/04/27 10:45:42;;;;;;;10.57;4.38;;;;;;;;;;5014387;28;20504;-75
2023/04/27 10:48:13;;;;;;;7.05;3.30;;;;;;;;;;5018108;28;20526;-76
2023/04/27 10:50:39;;;;;;;8.05;3.42;;;;;;;;;;5021182;28;20490;-75
2023/04/27 10:53:06;;;;;;;4.88;3.38;;;;;;;;;;5019450;28;20106;-75
2023/04/27 10:55:34;;;;;;;5.35;3.17;;;;;;;;;;5004948;28;20043;-74
2023/04/27 10:58:01;;;;;;;6.93;4.35;;;;;;;;;;5017954;28;20112;-74
2023/04/27 11:00:44;;;;;;;7.65;3.40;;;;;;;;;;5019714;28;20083;-75
2023/04/27 11:03:15;;;;;;;9.77;4.78;;;;;;;;;;5018931;28;20037;-75
2023/04/27 11:05:43;;;;;;;7.73;4.23;;;;;;;;;;5020079;28;20032;-76
2023/04/27 11:08:11;;;;;;;8.57;3.97;;;;;;;;;;5018860;28;20639;-75
2023/04/27 11:10:45;;;;;;;6.63;3.92;;;;;;;;;;5018120;28;20073;-75
2023/04/27 11:13:13;;;;;;;11.02;3.95;;;;;;;;;;5020043;28;20033;-76
2023/04/27 11:15:49;;;;;;;10.57;3.78;;;;;;;;;;5020834;28;20061;-75
2023/04/27 11:18:18;;;;;;;10.63;4.13;;;;;;;;;;5020073;28;20036;-76
2023/04/27 11:20:47;;;;;;;7.38;3.65;;;;;;;;;;5017738;28;20076;-76
2023/04/27 11:23:40;;;;;;;9.15;4.32;;;;;;;;;;5020093;28;20094;-75
2023/04/27 11:26:16;;;;;;;8.43;4.20;;;;;;;;;;5023461;28;20064;-76
2023/04/27 11:28:56;;;;;;;7.70;5.03;;;;;;;;;;5020807;28;20026;-76
2023/04/27 11:31:22;;;;;;;9.90;4.35;;;;;;;;;;5033053;28;20053;-76
2023/04/27 11:33:49;;;;;;;12.02;5.00;;;;;;;;;;5023821;28;20045;-75
2023/04/27 11:36:20;;;;;;;10.88;4.70;;;;;;;;;;5023575;28;20056;-76
2023/04/27 11:38:45;;;;;;;9.77;4.88;;;;;;;;;;5018797;28;20057;-74
2023/04/27 11:41:12;;;;;;;7.88;3.75;;;;;;;;;;5022068;28;20084;-74
2023/04/27 11:43:44;;;;;;;11.20;4.28;;;;;;;;;;5022185;28;20029;-75
2023/04/27 11:46:11;;;;;;;6.38;4.25;;;;;;;;;;5023492;28;20041;-75
2023/04/27 11:48:38;;;;;;;6.05;3.85;;;;;;;;;;5024068;28;20069;-74
2023/04/27 11:51:09;;;;;;;12.88;5.70;;;;;;;;;;5025562;28;20033;-75
2023/04/27 11:53:37;;;;;;;7.05;4.93;;;;;;;;;;5023610;28;20030;-75
2023/04/27 11:56:09;;;;;;;6.75;4.15;;;;;;;;;;5023101;28;20123;-75
2023/04/27 11:58:37;;;;;;;9.00;4.03;;;;;;;;;;5024832;28;20152;-74
2023/04/27 12:01:04;;;;;;;10.90;4.88;;;;;;;;;;5022869;28;20029;-76
2023/04/27 12:03:30;;;;;;;13.00;5.10;;;;;;;;;;5010266;28;20033;-73
2023/04/27 12:05:56;;;;;;;7.22;4.68;;;;;;;;;;5027479;28;20529;-74
2023/04/27 12:08:23;;;;;;;8.88;4.60;;;;;;;;;;5029584;28;20118;-74
2023/04/27 12:10:50;;;;;;;12.88;5.15;;;;;;;;;;5024846;28;20061;-74
2023/04/27 12:13:16;;;;;;;8.20;5.03;;;;;;;;;;5025895;28;20029;-74
2023/04/27 12:15:42;;;;;;;9.00;4.10;;;;;;;;;;5021929;28;20134;-74
2023/04/27 12:18:08;;;;;;;6.82;3.88;;;;;;;;;;5026368;28;20025;-74
2023/04/27 12:20:34;;;;;;;9.00;4.35;;;;;;;;;;5023811;28;20057;-73
2023/04/27 12:23:00;;;;;;;8.00;4.20;;;;;;;;;;5025664;28;20486;-74
2023/04/27 12:25:26;;;;;;;6.07;4.07;;;;;;;;;;4999458;28;20033;-75
2023/04/27 12:27:52;;;;;;;7.03;4.20;;;;;;;;;;5014623;28;20120;-74
2023/04/27 12:30:20;;;;;;;9.40;4.65;;;;;;;;;;5019787;28;20038;-75
2023/04/27 12:32:46;;;;;;;9.23;4.50;;;;;;;;;;5030108;28;20107;-75
2023/04/27 12:35:16;;;;;;;9.38;4.72;;;;;;;;;;5042001;28;20028;-73
2023/04/27 12:37:41;;;;;;;13.60;5.10;;;;;;;;;;5025726;28;20373;-74
2023/04/27 12:40:07;;;;;;;12.43;6.95;;;;;;;;;;5037638;28;20114;-75
2023/04/27 12:42:33;;;;;;;6.03;4.57;;;;;;;;;;5038556;28;20059;-74
2023/04/27 12:44:59;;;;;;;8.77;5.07;;;;;;;;;;5031354;28;20057;-73
2023/04/27 12:47:26;;;;;;;12.40;4.93;;;;;;;;;;5041753;28;20385;-74
2023/04/27 12:49:51;;;;;;;7.03;4.85;;;;;;;;;;5030599;28;20036;-73
2023/04/27 12:52:17;;;;;;;10.40;5.53;;;;;;;;;;5035510;28;20025;-76
2023/04/27 12:54:43;;;;;;;8.43;5.70;;;;;;;;;;5036918;28;20383;-74
2023/04/27 12:57:08;;;;;;;13.05;5.00;;;;;;;;;;5050689;28;20060;-75
2023/04/27 12:59:35;;;;;;;9.00;4.68;;;;;;;;;;5052359;28;20032;-74
2023/04/27 13:02:03;;;;;;;10.00;4.60;;;;;;;;;;5051133;28;20036;-75
2023/04/27 13:04:30;;;;;;;9.48;4.53;;;;;;;;;;5035962;28;20035;-74
2023/04/27 13:06:59;;;;;;;9.75;4.15;;;;;;;;;;5031656;28;20183;-75
2023/04/27 13:09:28;;;;;;;9.85;4.80;;;;;;;;;;5025317;28;20029;-75
2023/04/27 13:11:54;;;;;;;11.68;4.22;;;;;;;;;;5023607;28;20040;-74
2023/04/27 13:14:20;;;;;;;8.90;4.88;;;;;;;;;;5021197;28;20025;-75
2023/04/27 13:16:47;;;;;;;9.15;4.50;;;;;;;;;;5026062;28;20067;-75
2023/04/27 13:19:13;;;;;;;15.63;4.35;;;;;;;;;;5027460;28;20431;-77
2023/04/27 13:21:40;;;;;;;10.80;4.55;;;;;;;;;;5023086;28;20032;-76
2023/04/27 13:24:06;;;;;;;9.55;4.68;;;;;;;;;;5032762;28;20045;-75
2023/04/27 13:26:33;;;;;;;9.32;4.93;;;;;;;;;;5029642;28;20040;-75
2023/04/27 13:28:59;;;;;;;8.57;4.47;;;;;;;;;;5022378;28;20021;-75
2023/04/27 13:31:26;;;;;;;8.20;4.38;;;;;;;;;;5038589;28;20504;-75
2023/04/27 13:33:52;;;;;;;7.55;4.53;;;;;;;;;;5016199;28;20080;-74
2023/04/27 13:36:18;;;;;;;9.27;5.25;;;;;;;;;;5024705;28;20105;-74
2023/04/27 13:38:43;;;;;;;7.47;4.53;;;;;;;;;;5026106;28;20029;-75
2023/04/27 13:41:09;;;;;;;8.02;4.55;;;;;;;;;;5020339;28;20457;-73
2023/04/27 13:43:35;;;;;;;6.53;4.10;;;;;;;;;;5017015;28;20091;-73
2023/04/27 13:46:01;;;;;;;7.40;4.43;;;;;;;;;;5020808;28;20112;-74
2023/04/27 13:48:28;;;;;;;11.13;5.22;;;;;;;;;;5017964;28;20168;-75
2023/04/27 13:50:54;;;;;;;6.97;4.00;;;;;;;;;;5019938;28;20039;-74
2023/04/27 13:53:20;;;;;;;10.00;4.63;;;;;;;;;;5022945;28;20052;-75
2023/04/27 13:55:45;;;;;;;7.90;4.03;;;;;;;;;;5021578;28;20021;-75
2023/04/27 13:58:12;;;;;;;15.02;5.93;;;;;;;;;;5033427;28;20033;-75
2023/04/27 14:00:37;;;;;;;12.00;5.40;;;;;;;;;;5016938;28;20041;-75
2023/04/27 14:03:03;;;;;;;6.53;5.53;;;;;;;;;;5022165;28;20525;-75
2023/04/27 14:05:30;;;;;;;10.05;5.80;;;;;;;;;;5025362;28;20041;-74
2023/04/27 14:07:56;;;;;;;8.25;4.13;;;;;;;;;;5024313;28;20409;-75
2023/04/27 14:10:22;;;;;;;9.90;4.60;;;;;;;;;;5025497;28;20033;-75
2023/04/27 14:12:47;;;;;;;6.38;5.00;;;;;;;;;;5029103;28;20142;-75
2023/04/27 14:15:13;;;;;;;9.35;4.22;;;;;;;;;;5024812;28;20397;-74
2023/04/27 14:17:39;;;;;;;6.50;4.53;;;;;;;;;;5023650;28;20492;-75
2023/04/27 14:20:06;;;;;;;10.93;4.72;;;;;;;;;;5026231;28;20080;-75
2023/04/27 14:22:34;;;;;;;27.60;11.80;;;;;;;;;;5026098;28;20612;-75
2023/04/27 14:24:59;;;;;;;9.60;5.07;;;;;;;;;;5017075;28;20029;-75
2023/04/27 14:27:25;;;;;;;8.52;4.20;;;;;;;;;;5018605;28;20029;-75
2023/04/27 14:29:51;;;;;;;8.02;4.32;;;;;;;;;;5014884;28;20117;-76
2023/04/27 14:32:17;;;;;;;11.63;4.68;;;;;;;;;;5026517;28;20137;-74